Accueil
METAR-TAF:

METAR-TAF

Aéroports :

Base aérienne 118 Mont-de-Marsan

Mont-De-Marsan, France

latitude: 43-55N, longitude: 000-30W, altitude: 62 m

Observation

Le bulletin a été fait il y a 21 minutes, à 13:30 UTC
Vent 4 kt de sud-est, variant entre nord-est et sud-ouest
Température 27°C
Humidité 51%
Pression 1022 hPa
Visibilité 10 km ou plus
Nuages fragmentés à une hauteur de 4800 ft

METAR: LFBM 191330Z AUTO 13004KT 050V220 9999 BKN048 27/16 Q1022 NOSIG

Heure: 15:51 (13:51 UTC)

Prévision

Le bulletin a été fait il y a 5 heures et 51 minutes, à 08:00 UTC
Prévision valable du 19 à 09 UTC au 20 à 09 UTC
Vent 5 kt de est/nord-est
Visibilité 10 km ou plus
pas de nuages en-dessous de 1500 mètres et pas de cumulonimbus.
Temporairement
du 20 à 02 UTC au 20 à 07 UTC
Brouillard mince

TAF: LFBM 190800Z 1909/2009 06005KT CAVOK TEMPO 2002/2007 MIFG

Observations et prévisions météorologiques de plus de 4000 aéroports (messages METAR et TAF).

Les stations disponibles sont représentées par des disques jaunes et rouges sur la carte.

Passer la souris dessus pour voir le nom de la station.

Cliquer dessus pour voir les observations et prévisions météorologiques.

Pour changer de carte: cliquez sur les boutons verts avec une croix noire pour zoomer, sur le bouton vert avec un tiret pour effectuer un zoom arrière, ou sur les flèches vertes pour les cartes adjacentes.


METAR-TAF: